地図

経路データ

SID SEASON NUMBER BASIN SUBBASIN NAME ISO_TIME NATURE LAT LON WMO_WIND WMO_PRES WMO_AGENCY TRACK_TYPE DIST2LAND LANDFALL IFLAG USA_AGENCY USA_ATCF_ID USA_LAT USA_LON USA_RECORD USA_STATUS USA_WIND USA_PRES USA_SSHS USA_R34_NE USA_R34_SE USA_R34_SW USA_R34_NW USA_R50_NE USA_R50_SE USA_R50_SW USA_R50_NW USA_R64_NE USA_R64_SE USA_R64_SW USA_R64_NW USA_POCI USA_ROCI USA_RMW USA_EYE TOKYO_LAT TOKYO_LON TOKYO_GRADE TOKYO_WIND TOKYO_PRES TOKYO_R50_DIR TOKYO_R50_LONG TOKYO_R50_SHORT TOKYO_R30_DIR TOKYO_R30_LONG TOKYO_R30_SHORT TOKYO_LAND CMA_LAT CMA_LON CMA_CAT CMA_WIND CMA_PRES HKO_LAT HKO_LON HKO_CAT HKO_WIND HKO_PRES NEWDELHI_LAT NEWDELHI_LON NEWDELHI_GRADE NEWDELHI_WIND NEWDELHI_PRES NEWDELHI_CI NEWDELHI_DP NEWDELHI_POCI REUNION_LAT REUNION_LON REUNION_TYPE REUNION_WIND REUNION_PRES REUNION_TNUM REUNION_CI REUNION_RMW REUNION_R34_NE REUNION_R34_SE REUNION_R34_SW REUNION_R34_NW REUNION_R50_NE REUNION_R50_SE REUNION_R50_SW REUNION_R50_NW REUNION_R64_NE REUNION_R64_SE REUNION_R64_SW REUNION_R64_NW BOM_LAT BOM_LON BOM_TYPE BOM_WIND BOM_PRES BOM_TNUM BOM_CI BOM_RMW BOM_R34_NE BOM_R34_SE BOM_R34_SW BOM_R34_NW BOM_R50_NE BOM_R50_SE BOM_R50_SW BOM_R50_NW BOM_R64_NE BOM_R64_SE BOM_R64_SW BOM_R64_NW BOM_ROCI BOM_POCI BOM_EYE BOM_POS_METHOD BOM_PRES_METHOD NADI_LAT NADI_LON NADI_CAT NADI_WIND NADI_PRES WELLINGTON_LAT WELLINGTON_LON WELLINGTON_WIND WELLINGTON_PRES DS824_LAT DS824_LON DS824_STAGE DS824_WIND DS824_PRES TD9636_LAT TD9636_LON TD9636_STAGE TD9636_WIND TD9636_PRES TD9635_LAT TD9635_LON TD9635_WIND TD9635_PRES TD9635_ROCI NEUMANN_LAT NEUMANN_LON NEUMANN_CLASS NEUMANN_WIND NEUMANN_PRES MLC_LAT MLC_LON MLC_CLASS MLC_WIND MLC_PRES USA_GUST BOM_GUST BOM_GUST_PER REUNION_GUST REUNION_GUST_PER USA_SEAHGT USA_SEARAD_NE USA_SEARAD_SE USA_SEARAD_SW USA_SEARAD_NW STORM_SPEED STORM_DIR
1918249N18128 1918 58 WP MM NOT_NAMED 1918-09-05 22:00:00 NR 18.3000 127.500 main 548 548 __________O___ -1 18.3000 127.500 7 2 19
1918249N18128 1918 58 WP MM NOT_NAMED 1918-09-06 00:00:00 NR 18.3747 127.516 main 548 548 __________P___ -1 18.3747 127.516 7 2 11
1918249N18128 1918 58 WP MM NOT_NAMED 1918-09-06 03:00:00 NR 18.4900 127.539 main 548 548 __________P___ -1 18.4900 127.539 7 2 7
1918249N18128 1918 58 WP MM NOT_NAMED 1918-09-06 06:00:00 NR 18.6136 127.564 main 559 559 __________P___ -1 18.6136 127.564 7 3 11
1918249N18128 1918 58 WP MM NOT_NAMED 1918-09-06 09:00:00 NR 18.7505 127.591 main 560 560 __________P___ -1 18.7505 127.591 7 3 11
1918249N18128 1918 58 WP MM NOT_NAMED 1918-09-06 10:00:00 NR 18.8000 127.600 main 560 560 __________O___ -1 18.8000 127.600 7 3 0
1918249N18128 1918 58 WP MM NOT_NAMED 1918-09-06 12:00:00 NR 18.9052 127.619 main 561 561 __________P___ -1 18.9052 127.619 7 3 10
1918249N18128 1918 58 WP MM NOT_NAMED 1918-09-06 15:00:00 NR 19.0757 127.648 main 563 563 __________P___ -1 19.0757 127.648 7 4 10
1918249N18128 1918 58 WP MM NOT_NAMED 1918-09-06 18:00:00 NR 19.2558 127.675 main 577 577 __________P___ -1 19.2558 127.675 7 4 5
1918249N18128 1918 58 WP MM NOT_NAMED 1918-09-06 21:00:00 NR 19.4392 127.695 main 578 578 __________P___ -1 19.4392 127.695 7 4 0
1918249N18128 1918 58 WP MM NOT_NAMED 1918-09-06 22:00:00 NR 19.5000 127.700 main 581 581 __________O___ -1 19.5000 127.700 7 4 7
1918249N18128 1918 58 WP MM NOT_NAMED 1918-09-07 00:00:00 NR 19.6193 127.706 main 583 583 __________P___ -1 19.6193 127.706 7 4 3
1918249N18128 1918 58 WP MM NOT_NAMED 1918-09-07 03:00:00 NR 19.7983 127.708 main 588 588 __________P___ -1 19.7983 127.708 7 4 356
1918249N18128 1918 58 WP MM NOT_NAMED 1918-09-07 06:00:00 NR 19.9746 127.705 main 594 594 __________P___ -1 19.9746 127.705 7 3 357
1918249N18128 1918 58 WP MM NOT_NAMED 1918-09-07 09:00:00 NR 20.1450 127.701 main 597 601 __________P___ -1 20.1450 127.701 7 3 0
1918249N18128 1918 58 WP MM NOT_NAMED 1918-09-07 10:00:00 NR 20.2000 127.700 main 601 601 __________O___ -1 20.2000 127.700 7 3 357
1918249N18128 1918 58 WP MM NOT_NAMED 1918-09-07 12:00:00 NR 20.3031 127.700 main 605 605 __________P___ -1 20.3031 127.700 7 3 0
1918249N18128 1918 58 WP MM NOT_NAMED 1918-09-07 15:00:00 NR 20.4513 127.700 main 612 612 __________P___ -1 20.4513 127.700 7 3 0
1918249N18128 1918 58 WP MM NOT_NAMED 1918-09-07 18:00:00 NR 20.5975 127.700 main 617 617 __________P___ -1 20.5975 127.700 7 3 0
1918249N18128 1918 58 WP MM NOT_NAMED 1918-09-07 21:00:00 NR 20.7479 127.700 main 621 626 __________P___ -1 20.7479 127.700 7 3 0
1918249N18128 1918 58 WP MM NOT_NAMED 1918-09-07 22:00:00 NR 20.8000 127.700 main 626 626 __________O___ -1 20.8000 127.700 3 3 351
1918249N18128 1918 58 WP MM NOT_NAMED 1918-09-08 00:00:00 NR 20.9136 127.697 main 630 630 __________P___ -1 20.9136 127.697 3 4 357
1918249N18128 1918 58 WP MM NOT_NAMED 1918-09-08 03:00:00 NR 21.0903 127.693 main 640 640 __________P___ -1 21.0903 127.693 3 4 357
1918249N18128 1918 58 WP MM NOT_NAMED 1918-09-08 06:00:00 NR 21.2691 127.692 main 651 651 __________P___ -1 21.2691 127.692 3 4 3
1918249N18128 1918 58 WP MM NOT_NAMED 1918-09-08 09:00:00 NR 21.4438 127.697 main 656 662 __________P___ -1 21.4438 127.697 3 3 0
1918249N18128 1918 58 WP MM NOT_NAMED 1918-09-08 10:00:00 NR 21.5000 127.700 main 662 662 __________O___ -1 21.5000 127.700 4 3 0
1918249N18128 1918 58 WP MM NOT_NAMED 1918-09-08 12:00:00 NR 21.6083 127.714 main 668 663 __________P___ -1 21.6083 127.714 4 3 10
1918249N18128 1918 58 WP MM NOT_NAMED 1918-09-08 15:00:00 NR 21.7646 127.740 main 663 663 __________P___ -1 21.7646 127.740 4 3 9
1918249N18128 1918 58 WP MM NOT_NAMED 1918-09-08 18:00:00 NR 21.9133 127.769 main 669 659 __________P___ -1 21.9133 127.769 4 3 12
1918249N18128 1918 58 WP MM NOT_NAMED 1918-09-08 21:00:00 NR 22.0546 127.794 main 659 659 __________P___ -1 22.0546 127.794 4 3 10
1918249N18128 1918 58 WP MM NOT_NAMED 1918-09-08 22:00:00 NR 22.1000 127.800 main 659 654 __________O___ -1 22.1000 127.800 4 3 10
1918249N18128 1918 58 WP MM NOT_NAMED 1918-09-09 00:00:00 NR 22.1838 127.806 main 654 650 __________P___ -1 22.1838 127.806 4 2 0
1918249N18128 1918 58 WP MM NOT_NAMED 1918-09-09 03:00:00 NR 22.3031 127.808 main 650 645 __________P___ -1 22.3031 127.808 4 2 354
1918249N18128 1918 58 WP MM NOT_NAMED 1918-09-09 06:00:00 NR 22.4230 127.805 main 645 637 __________P___ -1 22.4230 127.805 4 3 357
1918249N18128 1918 58 WP MM NOT_NAMED 1918-09-09 09:00:00 NR 22.5529 127.801 main 637 637 __________P___ -1 22.5529 127.801 4 3 0
1918249N18128 1918 58 WP MM NOT_NAMED 1918-09-09 10:00:00 NR 22.6000 127.800 main 637 633 __________O___ -1 22.6000 127.800 4 3 0
1918249N18128 1918 58 WP MM NOT_NAMED 1918-09-09 12:00:00 NR 22.7079 127.805 main 633 626 __________P___ -1 22.7079 127.805 4 3 2
1918249N18128 1918 58 WP MM NOT_NAMED 1918-09-09 15:00:00 NR 22.8823 127.813 main 626 619 __________P___ -1 22.8823 127.813 4 4 2
1918249N18128 1918 58 WP MM NOT_NAMED 1918-09-09 18:00:00 NR 23.0637 127.816 main 619 616 __________P___ -1 23.0637 127.816 4 4 358
1918249N18128 1918 58 WP MM NOT_NAMED 1918-09-09 21:00:00 NR 23.2426 127.807 main 616 614 __________P___ -1 23.2426 127.807 4 4 355
1918249N18128 1918 58 WP MM NOT_NAMED 1918-09-09 22:00:00 NR 23.3000 127.800 main 614 611 __________O___ -1 23.3000 127.800 4 3 346
1918249N18128 1918 58 WP MM NOT_NAMED 1918-09-10 00:00:00 NR 23.4057 127.773 main 611 597 __________P___ -1 23.4057 127.773 4 3 344
1918249N18128 1918 58 WP MM NOT_NAMED 1918-09-10 03:00:00 NR 23.5580 127.720 main 597 595 __________P___ -1 23.5580 127.720 4 3 341
1918249N18128 1918 58 WP MM NOT_NAMED 1918-09-10 06:00:00 NR 23.7055 127.662 main 595 579 __________P___ -1 23.7055 127.662 4 3 342
1918249N18128 1918 58 WP MM NOT_NAMED 1918-09-10 09:00:00 NR 23.8512 127.612 main 579 579 __________P___ -1 23.8512 127.612 4 3 345
1918249N18128 1918 58 WP MM NOT_NAMED 1918-09-10 10:00:00 NR 23.9000 127.600 main 579 577 __________O___ -1 23.9000 127.600 4 3 351
1918249N18128 1918 58 WP MM NOT_NAMED 1918-09-10 12:00:00 NR 24.0026 127.589 main 577 572 __________P___ -1 24.0026 127.589 4 3 0
1918249N18128 1918 58 WP MM NOT_NAMED 1918-09-10 15:00:00 NR 24.1566 127.584 main 572 570 __________P___ -1 24.1566 127.584 4 3 5
1918249N18128 1918 58 WP MM NOT_NAMED 1918-09-10 18:00:00 NR 24.3079 127.589 main 570 567 __________P___ -1 24.3079 127.589 4 3 0
1918249N18128 1918 58 WP MM NOT_NAMED 1918-09-10 21:00:00 NR 24.4534 127.598 main 567 567 __________P___ -1 24.4534 127.598 4 3 8
1918249N18128 1918 58 WP MM NOT_NAMED 1918-09-10 22:00:00 NR 24.5000 127.600 main 567 566 __________O___ -1 24.5000 127.600 4 3 8
1918249N18128 1918 58 WP MM NOT_NAMED 1918-09-11 00:00:00 NR 24.5890 127.600 main 566 565 __________P___ -1 24.5890 127.600 4 3 356
1918249N18128 1918 58 WP MM NOT_NAMED 1918-09-11 03:00:00 NR 24.7163 127.600 main 565 564 __________P___ -1 24.7163 127.600 4 3 4
1918249N18128 1918 58 WP MM NOT_NAMED 1918-09-11 06:00:00 NR 24.8388 127.600 main 564 563 __________P___ -1 24.8388 127.600 4 2 4
1918249N18128 1918 58 WP MM NOT_NAMED 1918-09-11 09:00:00 NR 24.9596 127.600 main 563 563 __________P___ -1 24.9596 127.600 4 2 9
1918249N18128 1918 58 WP MM NOT_NAMED 1918-09-11 10:00:00 NR 25.0000 127.600 main 563 563 __________O___ -1 25.0000 127.600 4 2 357
1918249N18128 1918 58 WP MM NOT_NAMED 1918-09-11 12:00:00 NR 25.0781 127.597 main 563 563 __________P___ -1 25.0781 127.597 4 2 0
1918249N18128 1918 58 WP MM NOT_NAMED 1918-09-11 15:00:00 NR 25.1951 127.593 main 563 563 __________P___ -1 25.1951 127.593 4 2 354
1918249N18128 1918 58 WP MM NOT_NAMED 1918-09-11 18:00:00 NR 25.3175 127.592 main 564 564 __________P___ -1 25.3175 127.592 4 3 0
1918249N18128 1918 58 WP MM NOT_NAMED 1918-09-11 21:00:00 NR 25.4516 127.597 main 565 565 __________P___ -1 25.4516 127.597 4 3 0
1918249N18128 1918 58 WP MM NOT_NAMED 1918-09-11 22:00:00 NR 25.5000 127.600 main 565 565 __________O___ -1 25.5000 127.600 4 3 0
1918249N18128 1918 58 WP MM NOT_NAMED 1918-09-12 00:00:00 NR 25.6105 127.603 main 566 566 __________P___ -1 25.6105 127.603 4 3 0
1918249N18128 1918 58 WP MM NOT_NAMED 1918-09-12 03:00:00 NR 25.7889 127.614 main 569 569 __________P___ -1 25.7889 127.614 4 4 5
1918249N18128 1918 58 WP MM NOT_NAMED 1918-09-12 06:00:00 NR 25.9716 127.638 main 572 572 __________P___ -1 25.9716 127.638 4 4 8
1918249N18128 1918 58 WP MM NOT_NAMED 1918-09-12 09:00:00 NR 26.1459 127.680 main 584 586 __________P___ -1 26.1459 127.680 4 4 13
1918249N18128 1918 58 WP MM NOT_NAMED 1918-09-12 10:00:00 NR 26.2000 127.700 main 586 586 __________O___ -1 26.2000 127.700 4 3 21
1918249N18128 1918 58 WP MM NOT_NAMED 1918-09-12 12:00:00 NR 26.2842 127.737 main 589 584 __________P___ -1 26.2842 127.737 4 3 26
1918249N18128 1918 58 WP MM NOT_NAMED 1918-09-12 15:00:00 NR 26.3976 127.810 main 584 570 __________P___ -1 26.3976 127.810 4 3 35
1918249N18128 1918 58 WP MM NOT_NAMED 1918-09-12 18:00:00 NR 26.5124 127.911 main 570 556 __________P___ -1 26.5124 127.911 4 3 41
1918249N18128 1918 58 WP MM NOT_NAMED 1918-09-12 21:00:00 NR 26.6473 128.046 main 556 542 __________P___ -1 26.6473 128.046 4 4 41
1918249N18128 1918 58 WP MM NOT_NAMED 1918-09-12 22:00:00 NR 26.7000 128.100 main 542 528 __________O___ -1 26.7000 128.100 4 5 41
1918249N18128 1918 58 WP MM NOT_NAMED 1918-09-13 00:00:00 NR 26.8325 128.224 main 528 489 __________P___ -1 26.8325 128.224 4 6 40
1918249N18128 1918 58 WP MM NOT_NAMED 1918-09-13 03:00:00 NR 27.0566 128.441 main 489 456 __________P___ -1 27.0566 128.441 4 6 41
1918249N18128 1918 58 WP MM NOT_NAMED 1918-09-13 06:00:00 NR 27.2943 128.680 main 456 427 __________P___ -1 27.2943 128.680 4 6 42
1918249N18128 1918 58 WP MM NOT_NAMED 1918-09-13 09:00:00 NR 27.5268 128.922 main 427 413 __________P___ -1 27.5268 128.922 4 6 43
1918249N18128 1918 58 WP MM NOT_NAMED 1918-09-13 10:00:00 NR 27.6000 129.000 main 413 399 __________O___ -1 27.6000 129.000 4 6 44
1918249N18128 1918 58 WP MM NOT_NAMED 1918-09-13 12:00:00 NR 27.7370 129.149 main 399 368 __________P___ -1 27.7370 129.149 4 5 44
1918249N18128 1918 58 WP MM NOT_NAMED 1918-09-13 15:00:00 NR 27.9224 129.357 main 368 340 __________P___ -1 27.9224 129.357 4 5 45
1918249N18128 1918 58 WP MM NOT_NAMED 1918-09-13 18:00:00 NR 28.0904 129.551 main 340 327 __________P___ -1 28.0904 129.551 4 5 46
1918249N18128 1918 58 WP MM NOT_NAMED 1918-09-13 21:00:00 NR 28.2483 129.738 main 327 313 __________P___ -1 28.2483 129.738 4 5 46
1918249N18128 1918 58 WP MM NOT_NAMED 1918-09-13 22:00:00 NR 28.3000 129.800 main 313 __________O___ -1 28.3000 129.800 4 5 49

デジタル台風データ・検索

IBTrACS Databaseについて

本データベースは、米国NOAAが公開する1842年以降の世界の熱帯低気圧のベストトラックデータアーカイブInternational Best Track Archive for Climate Stewardship (IBTrACS)を、ウェブで閲覧しやすい形式に変換したものです。

最終更新日:2021-11-26